Time;durP1;ratioP1;P1;durP2;ratioP2;P2;SDS_P1;SDS_P2;PMS_P1;PMS_P2;Temp;Humidity;BMP_temperature;BMP_pressure;BME280_temperature;BME280_humidity;BME280_pressure;Samples;Min_cycle;Max_cycle;Signal;HPM_P1;HPM_P2
2023/02/16 00:00:38;;;;;;;23.20;11.48;;;4.90;99.90;;;;;;12402013;28;20541;-83
2023/02/16 00:06:40;;;;;;;22.00;11.77;;;5.00;99.90;;;;;;12414056;28;20096;-83
2023/02/16 00:19:14;;;;;;;25.90;12.63;;;5.10;99.90;;;;;;12417586;28;20053;-83
2023/02/16 00:25:16;;;;;;;19.98;11.48;;;5.10;99.90;;;;;;12399947;28;20054;-83
2023/02/16 00:31:20;;;;;;;24.83;13.20;;;5.00;99.90;;;;;;12399706;28;20050;-83
2023/02/16 00:37:22;;;;;;;;;;;5.00;99.90;;;;;;12405024;28;20098;-84
2023/02/16 00:43:27;;;;;;;24.05;13.05;;;5.00;99.90;;;;;;12410473;28;20003;-84
2023/02/16 00:49:29;;;;;;;23.95;13.00;;;5.00;99.90;;;;;;12426578;28;20108;-84
2023/02/16 00:55:34;;;;;;;24.50;13.32;;;5.00;99.90;;;;;;12376366;28;20051;-84
2023/02/16 01:01:36;;;;;;;28.55;12.52;;;5.00;99.90;;;;;;12397618;28;20054;-84
2023/02/16 01:13:58;;;;;;;26.08;13.88;;;4.80;99.90;;;;;;12379585;28;20403;-83
2023/02/16 01:20:00;;;;;;;24.45;13.50;;;4.70;99.90;;;;;;12387363;28;20043;-84
2023/02/16 01:26:02;;;;;;;28.85;14.88;;;4.60;99.90;;;;;;12381191;28;20046;-84
2023/02/16 01:32:04;;;;;;;26.45;14.57;;;4.50;99.90;;;;;;12389386;28;20058;-84
2023/02/16 01:38:19;;;;;;;25.52;13.60;;;4.60;99.90;;;;;;12378003;28;20050;-84
2023/02/16 01:44:28;;;;;;;26.23;14.45;;;4.80;99.90;;;;;;12422514;28;20046;-83
2023/02/16 01:50:44;;;;;;;30.98;15.98;;;4.70;99.90;;;;;;12428101;28;20058;-84
2023/02/16 01:56:56;;;;;;;28.63;15.30;;;4.80;99.90;;;;;;12409331;28;20460;-84
2023/02/16 02:09:45;;;;;;;28.05;15.38;;;4.70;99.90;;;;;;12406071;28;20224;-84
2023/02/16 02:15:47;;;;;;;29.38;15.65;;;4.80;99.90;;;;;;12435138;28;20044;-84
2023/02/16 02:29:07;;;;;;;31.80;16.05;;;4.70;99.90;;;;;;12478431;28;20081;-86
2023/02/16 02:35:39;;;;;;;32.25;16.00;;;4.70;99.90;;;;;;12477512;28;20042;-85
2023/02/16 02:42:04;;;;;;;29.27;16.38;;;4.50;99.90;;;;;;12454109;28;20057;-84
2023/02/16 02:48:06;;;;;;;30.30;16.63;;;4.40;99.90;;;;;;12417411;28;20056;-84
2023/02/16 03:00:40;;;;;;;31.85;17.02;;;4.40;99.90;;;;;;12370164;28;20101;-84
2023/02/16 03:06:47;;;;;;;33.10;18.05;;;4.40;99.90;;;;;;12370898;28;20096;-83
2023/02/16 03:12:49;;;;;;;34.10;17.60;;;4.40;99.90;;;;;;12348590;28;20458;-84
2023/02/16 03:31:37;;;;;;;33.42;18.92;;;4.20;99.90;;;;;;12394624;28;20609;-84
2023/02/16 03:37:40;;;;;;;32.08;16.90;;;4.40;99.90;;;;;;12358684;28;20062;-84
2023/02/16 03:43:42;;;;;;;37.15;18.95;;;4.30;99.90;;;;;;12369207;28;20046;-84
2023/02/16 03:49:44;;;;;;;34.25;18.77;;;4.30;99.90;;;;;;12350036;28;20465;-84
2023/02/16 03:55:47;;;;;;;35.35;18.88;;;4.20;99.90;;;;;;12360079;28;20063;-84
2023/02/16 04:01:49;;;;;;;37.22;19.77;;;4.30;99.90;;;;;;12350297;28;20490;-84
2023/02/16 04:07:51;;;;;;;37.85;19.65;;;4.40;99.90;;;;;;12341664;28;20498;-84
2023/02/16 04:13:53;;;;;;;34.45;19.00;;;4.50;99.90;;;;;;12364121;28;20059;-84
2023/02/16 04:19:55;;;;;;;33.30;17.55;;;4.60;99.90;;;;;;12349112;28;20073;-84
2023/02/16 04:25:57;;;;;;;37.17;18.55;;;4.60;99.90;;;;;;12370570;28;20042;-84
2023/02/16 04:31:59;;;;;;;36.65;18.80;;;4.40;99.90;;;;;;12377254;28;20057;-83
2023/02/16 04:38:01;;;;;;;33.58;18.60;;;4.30;99.90;;;;;;12374940;28;20047;-84
2023/02/16 04:44:02;;;;;;;35.92;19.55;;;4.30;99.90;;;;;;12349134;28;20042;-83
2023/02/16 04:50:05;;;;;;;32.50;17.92;;;4.30;99.90;;;;;;12376723;28;20047;-83
2023/02/16 04:56:11;;;;;;;39.13;19.40;;;4.30;99.90;;;;;;12356231;28;20565;-84
2023/02/16 05:02:13;;;;;;;30.15;17.98;;;4.20;99.90;;;;;;12378103;28;20554;-83
2023/02/16 05:08:15;;;;;;;35.28;19.05;;;4.20;99.90;;;;;;12379042;28;20145;-84
2023/02/16 05:27:10;;;;;;;36.60;19.17;;;4.10;99.90;;;;;;12369310;28;20164;-83
2023/02/16 05:33:12;;;;;;;38.35;19.42;;;4.20;99.90;;;;;;12359933;28;20050;-83
2023/02/16 05:39:13;;;;;;;36.00;19.70;;;4.20;99.90;;;;;;12372483;28;20047;-83
2023/02/16 05:45:15;;;;;;;35.47;19.15;;;4.20;99.90;;;;;;12335241;28;20051;-83
2023/02/16 05:51:18;;;;;;;35.00;18.65;;;4.20;99.90;;;;;;12342039;28;20097;-83
2023/02/16 05:57:20;;;;;;;38.03;19.38;;;4.20;99.90;;;;;;12344856;28;20055;-83
2023/02/16 06:03:22;;;;;;;34.47;17.98;;;4.20;99.90;;;;;;12370331;28;20062;-84
2023/02/16 06:09:24;;;;;;;33.70;18.08;;;4.20;99.90;;;;;;12355745;28;20046;-84
2023/02/16 06:15:26;;;;;;;36.13;18.63;;;4.20;99.90;;;;;;12362496;28;20050;-84
2023/02/16 06:21:28;;;;;;;33.00;18.05;;;4.20;99.90;;;;;;12371708;28;20050;-83
2023/02/16 06:27:30;;;;;;;35.60;18.05;;;4.20;99.90;;;;;;12366178;28;20109;-84
2023/02/16 06:33:32;;;;;;;32.08;16.92;;;4.30;99.90;;;;;;12379614;28;20046;-84
2023/02/16 06:39:34;;;;;;;35.33;17.90;;;4.40;99.90;;;;;;12373282;28;20892;-84
2023/02/16 06:45:35;;;;;;;33.47;18.60;;;4.50;99.90;;;;;;12382001;28;20085;-83
2023/02/16 06:51:38;;;;;;;37.22;17.83;;;4.50;99.90;;;;;;12383185;28;20154;-83
2023/02/16 06:57:39;;;;;;;29.13;16.98;;;4.50;99.90;;;;;;12345876;28;20058;-84
2023/02/16 07:03:41;;;;;;;32.08;16.60;;;4.60;99.90;;;;;;12365041;28;20042;-84
2023/02/16 07:09:43;;;;;;;30.42;15.93;;;4.70;99.90;;;;;;12363848;28;20055;-84
2023/02/16 07:15:45;;;;;;;32.85;15.70;;;4.70;99.90;;;;;;12363878;28;20354;-84
2023/02/16 07:21:50;;;;;;;30.13;16.52;;;4.70;99.90;;;;;;12361864;28;20185;-83
2023/02/16 07:27:53;;;;;;;;;;;4.70;99.90;;;;;;12375454;28;20050;-84
2023/02/16 07:34:02;;;;;;;30.00;16.08;;;4.70;99.90;;;;;;12365909;28;19999;-84
2023/02/16 07:40:05;;;;;;;28.92;16.35;;;4.80;99.90;;;;;;12374394;28;20502;-83
2023/02/16 07:46:07;;;;;;;29.73;15.85;;;5.00;99.90;;;;;;12367819;28;20061;-83
2023/02/16 07:52:10;;;;;;;28.25;15.90;;;5.20;99.90;;;;;;12364032;28;20407;-83
2023/02/16 07:58:26;;;;;;;26.50;14.82;;;5.50;99.90;;;;;;12368618;28;20058;-84
2023/02/16 08:04:28;;;;;;;31.73;16.35;;;5.70;99.90;;;;;;12354180;28;20055;-84
2023/02/16 08:10:29;;;;;;;25.63;15.13;;;5.60;99.90;;;;;;12361563;28;20556;-83
2023/02/16 08:16:32;;;;;;;28.90;14.43;;;5.50;99.90;;;;;;12355600;28;20482;-83
2023/02/16 08:22:35;;;;;;;26.27;15.45;;;5.50;99.90;;;;;;12347180;28;20039;-83
2023/02/16 08:28:37;;;;;;;25.95;14.95;;;5.40;99.90;;;;;;12356669;28;20536;-84
2023/02/16 08:34:39;;;;;;;25.10;15.50;;;5.40;99.90;;;;;;12352193;28;20053;-83
2023/02/16 08:40:50;;;;;;;;;;;5.50;99.90;;;;;;12355273;28;20116;-82
2023/02/16 08:46:53;;;;;;;27.60;14.23;;;5.50;99.90;;;;;;12339656;28;19937;-84
2023/02/16 08:52:57;;;;;;;26.73;15.80;;;5.70;99.90;;;;;;12361996;28;20050;-83
2023/02/16 08:58:59;;;;;;;24.48;15.07;;;5.70;99.90;;;;;;12351829;28;20054;-84
2023/02/16 09:05:00;;;;;;;30.05;15.18;;;5.80;99.90;;;;;;12377459;28;20545;-84
2023/02/16 09:11:04;;;;;;;27.70;14.55;;;5.90;99.90;;;;;;12362822;28;20779;-83
2023/02/16 09:17:06;;;;;;;25.67;14.50;;;6.10;99.90;;;;;;12347825;28;20039;-84
2023/02/16 09:23:11;;;;;;;29.58;15.32;;;6.30;99.90;;;;;;12350396;28;20121;-84
2023/02/16 09:29:13;;;;;;;30.40;15.88;;;6.30;99.90;;;;;;12379480;28;20062;-83
2023/02/16 09:35:15;;;;;;;33.75;15.70;;;6.50;99.90;;;;;;12411116;28;20046;-82
2023/02/16 09:41:46;;;;;;;30.70;15.75;;;6.70;99.90;;;;;;12416185;28;20145;-82
2023/02/16 09:47:50;;;;;;;26.02;15.68;;;6.70;99.90;;;;;;12432633;28;20095;-82
2023/02/16 09:54:00;;;;;;;26.87;15.63;;;6.90;99.90;;;;;;12422169;28;20060;-83
2023/02/16 10:00:22;;;;;;;25.10;14.18;;;7.10;99.90;;;;;;12436360;28;20053;-83
2023/02/16 10:06:32;;;;;;;28.35;15.23;;;7.20;99.90;;;;;;12407865;28;20054;-82
2023/02/16 10:12:44;;;;;;;26.23;14.80;;;7.20;99.90;;;;;;12413271;28;20100;-83
2023/02/16 10:18:51;;;;;;;30.88;14.93;;;7.30;99.90;;;;;;12430748;28;20559;-82
2023/02/16 10:25:17;;;;;;;25.80;15.40;;;7.30;99.90;;;;;;12411527;28;20049;-83
2023/02/16 10:31:19;;;;;;;29.42;16.27;;;7.20;99.90;;;;;;12424267;28;20053;-82
2023/02/16 10:38:14;;;;;;;27.10;15.98;;;7.10;99.90;;;;;;12437525;28;20084;-82
2023/02/16 10:44:24;;;;;;;27.13;15.85;;;7.20;99.90;;;;;;12382882;28;20100;-82
2023/02/16 10:50:36;;;;;;;27.20;16.48;;;7.40;99.90;;;;;;12393969;28;20058;-82
2023/02/16 10:56:48;;;;;;;28.17;15.80;;;7.60;99.90;;;;;;12405920;28;20053;-82
2023/02/16 11:02:51;;;;;;;26.77;15.23;;;7.80;99.90;;;;;;12399372;28;20046;-82
2023/02/16 11:08:59;;;;;;;28.40;15.57;;;8.00;99.90;;;;;;12396850;28;20101;-82
2023/02/16 11:15:17;;;;;;;26.17;15.52;;;8.10;99.90;;;;;;12415106;28;20065;-82
2023/02/16 11:21:20;;;;;;;25.13;15.13;;;8.30;99.90;;;;;;12426985;28;20054;-82
2023/02/16 11:27:23;;;;;;;28.25;15.98;;;8.70;99.90;;;;;;12412990;28;20050;-82
2023/02/16 11:33:27;;;;;;;25.98;15.30;;;8.80;99.90;;;;;;12402772;28;20073;-82
2023/02/16 11:39:34;;;;;;;27.97;16.20;;;8.90;99.90;;;;;;12419173;28;20050;-81
2023/02/16 11:45:40;;;;;;;28.23;16.70;;;8.90;99.90;;;;;;12414857;28;20156;-82
2023/02/16 11:51:42;;;;;;;26.83;16.48;;;8.90;99.90;;;;;;12413161;28;20046;-82
2023/02/16 11:57:43;;;;;;;24.88;15.75;;;8.90;99.90;;;;;;12363303;28;20145;-82
2023/02/16 12:04:10;;;;;;;28.05;16.08;;;8.90;99.90;;;;;;12372991;28;20046;-82
2023/02/16 12:10:24;;;;;;;25.85;15.73;;;8.90;99.90;;;;;;12381246;28;20065;-82
2023/02/16 12:16:53;;;;;;;27.07;15.27;;;9.00;99.90;;;;;;12379238;28;20053;-81
2023/02/16 12:23:34;;;;;;;26.48;16.23;;;9.30;99.90;;;;;;12354692;28;20343;-82
2023/02/16 12:30:02;;;;;;;28.83;17.15;;;9.40;99.90;;;;;;12378692;28;20058;-83
2023/02/16 12:36:05;;;;;;;28.55;15.70;;;9.40;99.90;;;;;;12351985;28;20038;-82
2023/02/16 12:42:41;;;;;;;27.27;16.83;;;9.50;99.90;;;;;;12396992;28;20566;-82
2023/02/16 12:49:00;;;;;;;28.10;16.25;;;9.50;99.90;;;;;;12381476;28;20050;-82
2023/02/16 12:55:18;;;;;;;27.52;16.17;;;9.50;99.90;;;;;;12351820;28;20057;-82
2023/02/16 13:01:30;;;;;;;25.90;16.63;;;9.60;99.90;;;;;;12381949;28;20046;-82
2023/02/16 13:07:37;;;;;;;28.75;17.17;;;9.70;99.90;;;;;;12359158;28;20051;-83
2023/02/16 13:13:42;;;;;;;26.45;17.08;;;9.70;99.90;;;;;;12376237;28;20042;-82
2023/02/16 13:19:45;;;;;;;;;;;9.40;99.90;;;;;;12401720;28;20050;-82
2023/02/16 13:25:47;;;;;;;29.40;17.30;;;9.20;99.90;;;;;;12397379;28;20396;-82
2023/02/16 13:32:01;;;;;;;28.30;16.67;;;9.20;99.90;;;;;;12382367;28;20126;-82
2023/02/16 13:38:25;;;;;;;29.43;17.00;;;9.10;99.90;;;;;;12408256;28;20541;-81
2023/02/16 13:44:43;;;;;;;27.20;17.13;;;9.00;99.90;;;;;;12371852;28;20046;-82
2023/02/16 13:50:59;;;;;;;26.00;16.50;;;9.00;99.90;;;;;;12366505;28;20050;-82
2023/02/16 13:57:03;;;;;;;27.75;16.13;;;9.00;99.90;;;;;;12370347;28;20170;-81
2023/02/16 14:03:09;;;;;;;28.43;17.10;;;9.00;99.90;;;;;;12367902;28;20082;-81
2023/02/16 14:09:12;;;;;;;26.48;16.10;;;9.10;99.90;;;;;;12372870;28;20501;-82
2023/02/16 14:15:19;;;;;;;32.80;17.70;;;9.30;99.90;;;;;;12380008;28;20050;-82
2023/02/16 14:21:36;;;;;;;27.52;16.52;;;9.60;99.90;;;;;;12379757;28;20399;-82
2023/02/16 14:27:50;;;;;;;28.98;16.48;;;9.60;99.90;;;;;;12388664;28;20046;-82
2023/02/16 14:34:02;;;;;;;24.57;15.93;;;9.50;99.90;;;;;;12392459;28;20082;-82
2023/02/16 14:40:35;;;;;;;25.75;14.38;;;9.50;99.90;;;;;;12377384;28;20490;-82
2023/02/16 14:46:49;;;;;;;23.30;15.63;;;9.40;99.90;;;;;;12363273;28;20128;-82
2023/02/16 14:53:28;;;;;;;24.13;15.77;;;9.40;99.90;;;;;;12368466;28;20054;-82
2023/02/16 14:59:46;;;;;;;27.25;15.75;;;9.40;99.90;;;;;;12369908;28;20077;-82
2023/02/16 15:05:57;;;;;;;24.20;15.70;;;9.30;99.90;;;;;;12365785;28;20046;-82
2023/02/16 15:12:21;;;;;;;23.60;15.85;;;9.20;99.90;;;;;;12356632;28;20062;-82
2023/02/16 15:18:45;;;;;;;28.27;17.03;;;9.20;99.90;;;;;;12380015;28;20057;-83
2023/02/16 15:25:34;;;;;;;28.05;17.17;;;9.10;99.90;;;;;;12365235;28;20057;-83
2023/02/16 15:31:37;;;;;;;28.05;17.55;;;9.10;99.90;;;;;;12367913;28;20092;-83
2023/02/16 15:37:41;;;;;;;30.33;18.23;;;9.00;99.90;;;;;;12386277;28;20047;-82
2023/02/16 15:43:49;;;;;;;30.70;19.08;;;9.00;99.90;;;;;;12377199;28;20545;-83
2023/02/16 15:49:52;;;;;;;30.52;18.88;;;8.90;99.90;;;;;;12362426;28;20120;-83
2023/02/16 15:55:54;;;;;;;28.20;19.00;;;8.90;99.90;;;;;;12388235;28;20050;-83
2023/02/16 16:02:34;;;;;;;29.95;19.40;;;8.80;99.90;;;;;;12426005;28;20049;-82
2023/02/16 16:08:36;;;;;;;29.98;19.85;;;8.80;99.90;;;;;;12392598;28;20050;-83
2023/02/16 16:14:50;;;;;;;33.50;20.48;;;8.70;99.90;;;;;;12365943;28;20498;-83
2023/02/16 16:21:01;;;;;;;33.80;20.63;;;8.80;99.90;;;;;;12383375;28;20054;-82
2023/02/16 16:27:10;;;;;;;28.70;20.48;;;8.70;99.90;;;;;;12391926;28;20534;-82
2023/02/16 16:33:14;;;;;;;30.33;19.80;;;8.60;99.90;;;;;;12374636;28;20047;-83
2023/02/16 16:39:16;;;;;;;34.83;21.53;;;8.60;99.90;;;;;;12402951;28;20074;-83
2023/02/16 16:45:20;;;;;;;30.17;20.80;;;8.60;99.90;;;;;;12393333;28;20395;-82
2023/02/16 16:51:22;;;;;;;;;;;8.60;99.90;;;;;;12363960;28;20051;-82
2023/02/16 16:57:24;;;;;;;36.60;20.30;;;8.50;99.90;;;;;;12384071;28;19922;-82
2023/02/16 17:03:26;;;;;;;32.28;20.50;;;8.50;99.90;;;;;;12381338;28;20447;-83
2023/02/16 17:09:31;;;;;;;32.80;21.25;;;8.50;99.90;;;;;;12373637;28;20046;-83
2023/02/16 17:15:45;;;;;;;33.40;21.10;;;8.50;99.90;;;;;;12394523;28;20410;-82
2023/02/16 17:21:47;;;;;;;35.08;21.98;;;8.50;99.90;;;;;;12372726;28;20101;-82
2023/02/16 17:27:49;;;;;;;34.17;21.42;;;8.50;99.90;;;;;;12385442;28;20145;-82
2023/02/16 17:33:51;;;;;;;31.90;20.85;;;8.50;99.90;;;;;;12390399;28;20042;-82
2023/02/16 17:39:53;;;;;;;34.47;21.65;;;8.50;99.90;;;;;;12393086;28;20042;-82
2023/02/16 17:45:58;;;;;;;34.65;22.05;;;8.50;99.90;;;;;;12388038;28;20062;-82
2023/02/16 17:52:00;;;;;;;34.35;21.45;;;8.40;99.90;;;;;;12388669;28;20038;-82
2023/02/16 17:58:02;;;;;;;33.50;21.38;;;8.40;99.90;;;;;;12387832;28;20085;-82
2023/02/16 18:04:04;;;;;;;32.78;21.02;;;8.50;99.90;;;;;;12383419;28;20081;-82
2023/02/16 18:10:06;;;;;;;38.55;22.92;;;8.50;99.90;;;;;;12379059;28;20089;-82
2023/02/16 18:16:12;;;;;;;33.92;22.40;;;8.50;99.90;;;;;;12343607;28;20137;-83
2023/02/16 18:22:14;;;;;;;35.83;21.38;;;8.50;99.90;;;;;;12368954;28;20043;-82
2023/02/16 18:28:19;;;;;;;36.60;22.25;;;8.50;99.90;;;;;;12389987;28;20051;-82
2023/02/16 18:34:21;;;;;;;;;;;8.50;99.90;;;;;;12386633;28;20650;-82
2023/02/16 18:40:25;;;;;;;32.00;20.88;;;8.60;99.90;;;;;;12414129;28;19928;-82
2023/02/16 18:46:27;;;;;;;32.33;19.98;;;8.60;99.90;;;;;;12403708;28;20049;-83
2023/02/16 18:52:29;;;;;;;31.50;20.75;;;8.70;99.90;;;;;;12424785;28;20037;-82
2023/02/16 18:58:31;;;;;;;33.10;20.38;;;8.60;99.90;;;;;;12432026;28;20050;-83
2023/02/16 19:04:33;;;;;;;34.85;20.42;;;8.60;99.90;;;;;;12420107;28;20410;-82
2023/02/16 19:10:35;;;;;;;32.28;19.85;;;8.70;99.90;;;;;;12447111;28;20054;-82
2023/02/16 19:16:40;;;;;;;31.50;19.98;;;8.70;99.90;;;;;;12378422;28;20051;-82
2023/02/16 19:22:42;;;;;;;29.77;19.48;;;8.70;99.90;;;;;;12369594;28;20061;-82
2023/02/16 19:28:45;;;;;;;32.50;20.67;;;8.60;99.90;;;;;;12378769;28;20145;-82
2023/02/16 19:34:47;;;;;;;26.92;17.35;;;8.70;99.90;;;;;;12386053;28;20054;-83
2023/02/16 19:40:49;;;;;;;27.25;16.27;;;8.90;99.90;;;;;;12379807;28;20077;-83
2023/02/16 19:46:51;;;;;;;23.35;15.30;;;9.00;99.90;;;;;;12386320;28;20521;-83
2023/02/16 19:52:53;;;;;;;25.75;17.08;;;9.10;99.90;;;;;;12366240;28;20081;-82
2023/02/16 19:58:58;;;;;;;29.13;16.60;;;9.00;99.90;;;;;;12383573;28;20187;-82
2023/02/16 20:05:00;;;;;;;27.60;17.25;;;8.90;99.90;;;;;;12400120;28;20129;-83
2023/02/16 20:11:04;;;;;;;30.43;17.77;;;8.70;99.90;;;;;;12389555;28;20046;-83
2023/02/16 20:17:06;;;;;;;30.33;18.75;;;8.50;99.90;;;;;;12376348;28;20054;-81
2023/02/16 20:23:08;;;;;;;31.40;18.75;;;8.30;99.90;;;;;;12363195;28;20139;-81
2023/02/16 20:29:14;;;;;;;30.00;18.55;;;8.30;99.90;;;;;;12373453;28;20129;-82
2023/02/16 20:35:16;;;;;;;34.25;20.15;;;8.20;99.90;;;;;;12377584;28;20054;-82
2023/02/16 20:41:19;;;;;;;31.95;20.42;;;8.10;99.90;;;;;;12371341;28;20064;-81
2023/02/16 20:47:21;;;;;;;34.45;21.25;;;8.00;99.90;;;;;;12372461;28;20129;-81
2023/02/16 20:53:23;;;;;;;32.72;20.73;;;7.90;99.90;;;;;;12364672;28;20058;-82
2023/02/16 20:59:25;;;;;;;36.38;21.95;;;7.80;99.90;;;;;;12362700;28;20062;-82
2023/02/16 21:05:27;;;;;;;33.22;20.85;;;7.80;99.90;;;;;;12395429;28;20084;-82
2023/02/16 21:11:29;;;;;;;37.25;21.40;;;7.80;99.90;;;;;;12386850;28;20079;-82
2023/02/16 21:17:31;;;;;;;36.15;21.70;;;7.80;99.90;;;;;;12367114;28;20053;-82
2023/02/16 21:23:33;;;;;;;36.55;22.33;;;7.80;99.90;;;;;;12382982;28;20453;-81
2023/02/16 21:29:36;;;;;;;38.22;23.05;;;7.80;99.90;;;;;;12397570;28;20055;-83
2023/02/16 21:35:38;;;;;;;38.53;23.23;;;7.80;99.90;;;;;;12392720;28;20134;-81
2023/02/16 21:41:40;;;;;;;38.13;23.10;;;7.90;99.90;;;;;;12391644;28;20045;-82
2023/02/16 21:54:05;;;;;;;38.10;23.23;;;7.80;99.90;;;;;;12356419;28;20065;-82
2023/02/16 22:00:12;;;;;;;32.25;21.63;;;7.80;99.90;;;;;;12399081;28;20058;-82
2023/02/16 22:06:14;;;;;;;37.15;22.17;;;7.80;99.90;;;;;;12338818;28;20100;-82
2023/02/16 22:12:15;;;;;;;33.05;22.08;;;7.80;99.90;;;;;;12370003;28;20053;-82
2023/02/16 22:18:17;;;;;;;34.47;22.88;;;7.90;99.90;;;;;;12384448;28;20051;-81
2023/02/16 22:24:19;;;;;;;37.17;23.13;;;7.80;99.90;;;;;;12384724;28;20308;-82
2023/02/16 22:30:21;;;;;;;35.30;23.55;;;7.90;99.90;;;;;;12377576;28;20057;-82
2023/02/16 22:36:23;;;;;;;37.95;23.98;;;7.90;99.90;;;;;;12382172;28;20165;-83
2023/02/16 22:42:25;;;;;;;40.85;24.83;;;7.90;99.90;;;;;;12382233;28;20141;-82
2023/02/16 22:48:27;;;;;;;39.75;25.77;;;7.90;99.90;;;;;;12378914;28;20324;-82
2023/02/16 22:54:29;;;;;;;40.13;26.70;;;7.90;99.90;;;;;;12352869;28;20117;-82
2023/02/16 23:00:31;;;;;;;41.60;27.38;;;7.90;99.90;;;;;;12385971;28;20043;-82
2023/02/16 23:06:36;;;;;;;43.95;27.35;;;8.00;99.90;;;;;;12383282;28;20444;-82
2023/02/16 23:12:38;;;;;;;39.15;26.38;;;8.00;99.90;;;;;;12374847;28;20044;-83
2023/02/16 23:18:41;;;;;;;40.10;27.73;;;8.00;99.90;;;;;;12371959;28;20046;-82
2023/02/16 23:25:31;;;;;;;40.58;26.75;;;8.00;99.90;;;;;;12380762;28;20490;-82
2023/02/16 23:31:08;;;;;;;40.63;25.73;;;8.00;99.90;;;;;;12363696;28;20058;-82
2023/02/16 23:37:10;;;;;;;37.88;26.67;;;8.00;99.90;;;;;;12404584;28;20054;-81
2023/02/16 23:43:12;;;;;;;38.03;27.27;;;8.10;99.90;;;;;;12368669;28;20065;-84
2023/02/16 23:49:14;;;;;;;44.25;28.35;;;8.10;99.90;;;;;;12361942;28;20058;-82
2023/02/16 23:55:16;;;;;;;42.25;28.08;;;8.10;99.90;;;;;;12357167;28;20487;-83
